Time;durP1;ratioP1;P1;durP2;ratioP2;P2;SDS_P1;SDS_P2;PMS_P1;PMS_P2;Temp;Humidity;BMP_temperature;BMP_pressure;BME280_temperature;BME280_humidity;BME280_pressure;Samples;Min_cycle;Max_cycle;Signal;HPM_P1;HPM_P2
2023/03/23 00:01:19;;;;;;;5.82;2.72;;;10.80;59.20;;;;;;5070458;28;20208;-69
2023/03/23 00:03:52;;;;;;;6.32;4.13;;;10.80;59.40;;;;;;5066247;28;20193;-69
2023/03/23 00:06:22;;;;;;;5.55;3.05;;;10.80;60.40;;;;;;5070274;28;20233;-69
2023/03/23 00:08:56;;;;;;;5.32;3.65;;;10.70;59.80;;;;;;5070110;28;20205;-69
2023/03/23 00:11:28;;;;;;;3.88;2.20;;;10.80;60.00;;;;;;5067061;28;20189;-71
2023/03/23 00:14:02;;;;;;;6.90;2.75;;;10.80;59.90;;;;;;5070187;28;20276;-69
2023/03/23 00:16:31;;;;;;;3.72;2.35;;;10.80;60.30;;;;;;5071240;28;20266;-69
2023/03/23 00:19:01;;;;;;;8.68;3.60;;;10.80;60.20;;;;;;5071240;28;20272;-69
2023/03/23 00:21:34;;;;;;;6.00;2.78;;;10.80;60.30;;;;;;5071952;28;20235;-73
2023/03/23 00:24:05;;;;;;;5.55;3.10;;;10.80;60.30;;;;;;5072278;28;20280;-69
2023/03/23 00:26:34;;;;;;;5.45;3.08;;;10.90;59.70;;;;;;5076069;28;20541;-69
2023/03/23 00:29:05;;;;;;;4.78;2.50;;;10.80;59.70;;;;;;5075442;28;20246;-69
2023/03/23 00:31:35;;;;;;;3.95;2.58;;;10.80;59.80;;;;;;5074131;28;20197;-70
2023/03/23 00:34:03;;;;;;;7.05;2.72;;;10.70;60.00;;;;;;5075983;28;20735;-69
2023/03/23 00:36:31;;;;;;;8.07;2.72;;;10.70;60.10;;;;;;5075788;28;20521;-70
2023/03/23 00:39:02;;;;;;;5.22;2.85;;;10.70;60.30;;;;;;5075324;28;20197;-74
2023/03/23 00:41:30;;;;;;;4.57;2.53;;;10.70;60.80;;;;;;5075421;28;20194;-69
2023/03/23 00:44:01;;;;;;;5.82;2.72;;;10.70;60.80;;;;;;5075596;28;20198;-71
2023/03/23 00:46:30;;;;;;;4.00;2.47;;;10.70;61.40;;;;;;5075547;28;20263;-69
2023/03/23 00:48:58;;;;;;;4.78;2.85;;;10.70;61.40;;;;;;5075464;28;20193;-70
2023/03/23 00:51:28;;;;;;;3.83;2.72;;;10.80;61.50;;;;;;5075212;28;20597;-69
2023/03/23 00:53:55;;;;;;;4.72;2.88;;;10.80;61.50;;;;;;5075092;28;20999;-69
2023/03/23 00:56:23;;;;;;;3.72;2.20;;;10.80;61.60;;;;;;5075524;28;20711;-69
2023/03/23 00:58:52;;;;;;;6.40;3.20;;;10.80;61.70;;;;;;5074751;28;20716;-69
2023/03/23 01:01:19;;;;;;;3.60;2.85;;;10.80;61.80;;;;;;5075103;28;20190;-70
2023/03/23 01:03:47;;;;;;;4.28;2.17;;;10.80;61.60;;;;;;5074344;28;20197;-70
2023/03/23 01:06:14;;;;;;;6.88;3.10;;;10.70;61.50;;;;;;5074898;28;20190;-69
2023/03/23 01:08:44;;;;;;;5.38;3.08;;;10.70;61.70;;;;;;5074736;28;20311;-69
2023/03/23 01:11:15;;;;;;;4.03;2.78;;;10.60;62.40;;;;;;5074994;28;20189;-69
2023/03/23 01:13:43;;;;;;;3.85;2.65;;;10.60;63.10;;;;;;5074888;28;20181;-69
2023/03/23 01:16:11;;;;;;;4.32;2.83;;;10.60;63.40;;;;;;5074876;28;20679;-69
2023/03/23 01:18:39;;;;;;;5.45;2.60;;;10.50;63.50;;;;;;5074536;28;20272;-70
2023/03/23 01:21:10;;;;;;;4.10;2.75;;;10.50;63.40;;;;;;5074597;28;20251;-69
2023/03/23 01:23:38;;;;;;;5.57;3.47;;;10.50;63.20;;;;;;5074808;28;20186;-69
2023/03/23 01:26:06;;;;;;;3.92;2.67;;;10.50;63.20;;;;;;5075010;28;20196;-69
2023/03/23 01:28:34;;;;;;;5.28;3.03;;;10.40;63.20;;;;;;5074439;28;20533;-69
2023/03/23 01:31:03;;;;;;;4.15;2.65;;;10.40;63.40;;;;;;5074135;28;20186;-69
2023/03/23 01:33:30;;;;;;;4.53;2.80;;;10.40;63.70;;;;;;5074067;28;20561;-71
2023/03/23 01:35:58;;;;;;;4.30;2.70;;;10.30;63.90;;;;;;5073820;28;20629;-69
2023/03/23 01:38:33;;;;;;;5.57;2.58;;;10.20;63.70;;;;;;5074368;28;20190;-70
2023/03/23 01:41:05;;;;;;;3.45;2.38;;;10.10;64.00;;;;;;5074269;28;20549;-69
2023/03/23 01:43:32;;;;;;;4.40;2.95;;;10.10;64.10;;;;;;5074566;28;20659;-69
2023/03/23 01:46:00;;;;;;;4.75;2.53;;;10.00;63.90;;;;;;5073940;28;20189;-70
2023/03/23 01:48:30;;;;;;;4.30;3.17;;;9.90;65.50;;;;;;5074285;28;20221;-69
2023/03/23 01:51:03;;;;;;;4.18;2.70;;;9.80;65.60;;;;;;5074249;28;20189;-69
2023/03/23 01:53:37;;;;;;;6.18;2.78;;;9.70;66.20;;;;;;5074244;28;20197;-70
2023/03/23 01:56:07;;;;;;;5.38;3.30;;;9.60;67.50;;;;;;5074059;28;20211;-69
2023/03/23 01:58:38;;;;;;;4.80;3.15;;;9.60;68.30;;;;;;5074230;28;20193;-69
2023/03/23 02:01:08;;;;;;;5.80;2.97;;;9.50;68.70;;;;;;5073699;28;20284;-69
2023/03/23 02:03:38;;;;;;;13.63;8.55;;;9.50;69.40;;;;;;5074088;28;20653;-69
2023/03/23 02:06:06;;;;;;;10.80;5.78;;;9.50;69.50;;;;;;5073320;28;20192;-69
2023/03/23 02:08:36;;;;;;;5.78;3.70;;;9.50;69.60;;;;;;5073663;28;20218;-70
2023/03/23 02:11:13;;;;;;;5.70;3.08;;;9.50;70.00;;;;;;5073443;28;20220;-72
2023/03/23 02:13:41;;;;;;;3.80;3.00;;;9.50;70.10;;;;;;5074078;28;20246;-69
2023/03/23 02:16:17;;;;;;;5.18;3.22;;;9.50;70.10;;;;;;5073986;28;20193;-70
2023/03/23 02:18:58;;;;;;;4.07;3.00;;;9.50;70.00;;;;;;5073244;28;20181;-69
2023/03/23 02:21:56;;;;;;;4.90;2.78;;;9.50;70.30;;;;;;5073715;28;20542;-69
2023/03/23 02:24:53;;;;;;;4.05;3.05;;;9.60;70.50;;;;;;5073227;28;20670;-69
2023/03/23 02:27:47;;;;;;;6.97;3.50;;;9.60;70.60;;;;;;5073517;28;20218;-69
2023/03/23 02:30:41;;;;;;;4.10;2.80;;;9.60;70.60;;;;;;5059979;28;20181;-71
2023/03/23 02:33:35;;;;;;;6.75;2.90;;;9.70;70.20;;;;;;5055133;28;20325;-70
2023/03/23 02:36:09;;;;;;;6.85;2.60;;;9.60;70.70;;;;;;5073287;28;20204;-69
2023/03/23 02:38:42;;;;;;;3.97;2.65;;;9.50;71.20;;;;;;5073018;28;20228;-69
2023/03/23 02:41:11;;;;;;;3.90;2.50;;;9.50;71.10;;;;;;5072833;28;20239;-69
2023/03/23 02:43:45;;;;;;;3.40;2.60;;;9.50;70.90;;;;;;5072859;28;20192;-70
2023/03/23 02:46:16;;;;;;;4.65;2.70;;;9.40;70.90;;;;;;5073016;28;20206;-69
2023/03/23 02:48:48;;;;;;;3.78;2.50;;;9.20;71.70;;;;;;5072529;28;20224;-69
2023/03/23 02:51:16;;;;;;;6.07;2.90;;;9.20;72.20;;;;;;5072679;28;20186;-69
2023/03/23 02:53:45;;;;;;;4.97;3.20;;;9.20;72.30;;;;;;5072673;28;20220;-69
2023/03/23 02:56:14;;;;;;;4.63;2.60;;;9.10;72.80;;;;;;5072901;28;20638;-69
2023/03/23 02:58:41;;;;;;;3.50;2.20;;;9.10;73.60;;;;;;5072675;28;20185;-69
2023/03/23 03:01:33;;;;;;;5.40;2.20;;;9.10;73.90;;;;;;5072434;28;20593;-69
2023/03/23 03:04:06;;;;;;;4.10;2.50;;;9.10;73.90;;;;;;5072592;28;20194;-70
2023/03/23 03:06:39;;;;;;;5.20;2.53;;;9.10;74.40;;;;;;5072532;28;20229;-69
2023/03/23 03:09:15;;;;;;;4.97;2.53;;;9.10;75.20;;;;;;5072419;28;20503;-69
2023/03/23 03:11:51;;;;;;;3.60;2.55;;;9.10;75.30;;;;;;5072498;28;20196;-69
2023/03/23 03:14:23;;;;;;;5.55;2.78;;;9.10;75.20;;;;;;5072737;28;20181;-69
2023/03/23 03:16:58;;;;;;;3.83;2.33;;;9.10;74.40;;;;;;5072749;28;20204;-69
2023/03/23 03:19:30;;;;;;;5.93;2.38;;;9.10;74.30;;;;;;5072185;28;20280;-69
2023/03/23 03:21:59;;;;;;;4.97;2.60;;;9.00;74.20;;;;;;5072043;28;20193;-70
2023/03/23 03:24:30;;;;;;;3.05;2.22;;;9.00;74.90;;;;;;5072292;28;20193;-69
2023/03/23 03:27:01;;;;;;;5.45;3.30;;;9.00;75.70;;;;;;5072439;28;20285;-69
2023/03/23 03:29:31;;;;;;;4.32;2.65;;;8.90;76.20;;;;;;5072611;28;20182;-69
2023/03/23 03:32:02;;;;;;;4.43;2.75;;;8.90;77.00;;;;;;5072327;28;20593;-69
2023/03/23 03:34:31;;;;;;;13.95;3.90;;;8.90;77.60;;;;;;5072361;28;20200;-70
2023/03/23 03:37:00;;;;;;;3.97;2.60;;;8.80;77.70;;;;;;5072155;28;20208;-70
2023/03/23 03:39:28;;;;;;;4.03;2.53;;;8.80;77.90;;;;;;5072084;28;20275;-69
2023/03/23 03:41:56;;;;;;;5.10;2.47;;;8.80;78.30;;;;;;5072448;28;20190;-69
2023/03/23 03:44:24;;;;;;;3.30;2.05;;;8.80;78.80;;;;;;5071844;28;20201;-70
2023/03/23 03:46:51;;;;;;;4.90;2.42;;;8.70;79.40;;;;;;5072649;28;20235;-69
2023/03/23 03:49:18;;;;;;;4.22;2.63;;;8.70;79.30;;;;;;5072277;28;20723;-69
2023/03/23 03:51:47;;;;;;;4.53;2.88;;;8.70;79.30;;;;;;5071614;28;20305;-69
2023/03/23 03:54:14;;;;;;;3.92;2.97;;;8.70;78.50;;;;;;5072256;28;20201;-69
2023/03/23 03:56:41;;;;;;;5.20;3.65;;;8.60;78.80;;;;;;5071697;28;20551;-69
2023/03/23 03:59:09;;;;;;;3.92;2.80;;;8.50;78.70;;;;;;5071995;28;20656;-69
2023/03/23 04:01:37;;;;;;;6.95;2.90;;;8.50;78.90;;;;;;5071596;28;20650;-69
2023/03/23 04:04:06;;;;;;;4.30;2.60;;;8.60;79.60;;;;;;5072122;28;20704;-70
2023/03/23 04:06:35;;;;;;;6.93;4.25;;;8.60;79.90;;;;;;5071442;28;20217;-69
2023/03/23 04:09:07;;;;;;;8.23;3.85;;;8.60;79.80;;;;;;5072121;28;20669;-69
2023/03/23 04:11:34;;;;;;;3.70;3.10;;;8.60;79.50;;;;;;5071551;28;20182;-69
2023/03/23 04:14:06;;;;;;;4.38;2.88;;;8.70;79.40;;;;;;5071965;28;20232;-69
2023/03/23 04:16:34;;;;;;;4.10;2.75;;;8.70;79.20;;;;;;5071620;28;20219;-68
2023/03/23 04:19:03;;;;;;;4.57;4.18;;;8.60;79.30;;;;;;5072010;28;20708;-68
2023/03/23 04:21:30;;;;;;;5.38;3.72;;;8.70;78.90;;;;;;5071413;28;20344;-69
2023/03/23 04:23:58;;;;;;;5.30;3.10;;;8.70;78.60;;;;;;5071869;28;20194;-69
2023/03/23 04:26:29;;;;;;;10.65;3.80;;;8.70;79.10;;;;;;5071405;28;20185;-68
2023/03/23 04:28:58;;;;;;;4.65;2.60;;;8.70;78.40;;;;;;5071412;28;20213;-68
2023/03/23 04:31:26;;;;;;;7.55;2.85;;;8.60;78.70;;;;;;5071410;28;20186;-69
2023/03/23 04:33:53;;;;;;;3.85;2.40;;;8.50;79.40;;;;;;5071950;28;20197;-69
2023/03/23 04:36:22;;;;;;;4.80;2.05;;;8.50;79.40;;;;;;5071369;28;20587;-69
2023/03/23 04:38:54;;;;;;;4.60;2.45;;;8.40;79.20;;;;;;5071613;28;20193;-68
2023/03/23 04:41:22;;;;;;;4.65;2.67;;;8.40;79.50;;;;;;5071241;28;20196;-68
2023/03/23 04:43:52;;;;;;;4.45;2.40;;;8.50;79.80;;;;;;5071744;28;20186;-69
2023/03/23 04:46:21;;;;;;;3.20;2.13;;;8.50;80.10;;;;;;5071026;28;20186;-68
2023/03/23 04:48:49;;;;;;;5.60;1.85;;;8.60;80.50;;;;;;5071247;28;20549;-69
2023/03/23 04:51:16;;;;;;;3.25;2.22;;;8.70;80.50;;;;;;5071798;28;20521;-70
2023/03/23 04:53:43;;;;;;;3.00;2.20;;;8.70;80.50;;;;;;5071254;28;20251;-68
2023/03/23 04:56:10;;;;;;;3.67;2.53;;;8.80;80.40;;;;;;5071264;28;20194;-68
2023/03/23 04:58:39;;;;;;;3.83;2.33;;;8.90;80.20;;;;;;5071564;28;20200;-68
2023/03/23 05:01:07;;;;;;;5.45;2.70;;;8.80;79.30;;;;;;5071669;28;20186;-69
2023/03/23 05:03:34;;;;;;;3.33;2.25;;;8.80;78.90;;;;;;5071457;28;20198;-68
2023/03/23 05:06:03;;;;;;;4.60;2.50;;;8.70;78.60;;;;;;5071396;28;20255;-69
2023/03/23 05:08:31;;;;;;;4.07;2.17;;;8.70;78.70;;;;;;5070264;28;20221;-69
2023/03/23 05:10:59;;;;;;;6.88;2.35;;;8.60;79.10;;;;;;5073311;28;20259;-69
2023/03/23 05:13:28;;;;;;;4.78;2.80;;;8.60;79.30;;;;;;5074803;28;20192;-68
2023/03/23 05:15:56;;;;;;;4.95;2.35;;;8.60;79.60;;;;;;5074247;28;20185;-68
2023/03/23 05:18:27;;;;;;;5.18;2.70;;;8.50;79.80;;;;;;5075445;28;20600;-68
2023/03/23 05:20:55;;;;;;;6.60;2.10;;;8.50;80.40;;;;;;5074951;28;20231;-71
2023/03/23 05:23:24;;;;;;;7.85;2.05;;;8.50;80.50;;;;;;5075655;28;20202;-70
2023/03/23 05:25:54;;;;;;;5.13;2.88;;;8.50;80.50;;;;;;5074525;28;20186;-68
2023/03/23 05:28:22;;;;;;;3.45;2.38;;;8.50;80.70;;;;;;5075042;28;20225;-69
2023/03/23 05:30:50;;;;;;;5.70;2.42;;;8.50;80.60;;;;;;5074922;28;20181;-69
2023/03/23 05:33:18;;;;;;;3.72;2.35;;;8.50;80.20;;;;;;5074359;28;20190;-69
2023/03/23 05:35:47;;;;;;;3.80;2.45;;;8.50;80.10;;;;;;5074162;28;20196;-72
2023/03/23 05:38:15;;;;;;;4.82;2.55;;;8.60;79.90;;;;;;5074756;28;20201;-70
2023/03/23 05:40:42;;;;;;;5.95;2.75;;;8.60;79.40;;;;;;5074813;28;20653;-69
2023/03/23 05:43:11;;;;;;;5.28;3.25;;;8.60;79.60;;;;;;5075009;28;20189;-69
2023/03/23 05:45:39;;;;;;;4.93;2.40;;;8.60;79.60;;;;;;5073413;28;20670;-69
2023/03/23 05:48:06;;;;;;;4.93;2.90;;;8.60;80.00;;;;;;5073759;28;20213;-69
2023/03/23 05:50:34;;;;;;;4.60;3.00;;;8.60;79.90;;;;;;5074507;28;20186;-69
2023/03/23 05:53:04;;;;;;;9.38;3.47;;;8.70;80.10;;;;;;5073943;28;20572;-68
2023/03/23 05:55:33;;;;;;;15.02;4.03;;;8.70;80.40;;;;;;5074206;28;20201;-69
2023/03/23 05:58:00;;;;;;;10.50;4.40;;;8.80;80.80;;;;;;5074476;28;20225;-69
2023/03/23 06:00:30;;;;;;;6.57;4.63;;;8.80;81.10;;;;;;5074276;28;20182;-69
2023/03/23 06:02:58;;;;;;;9.25;7.18;;;8.80;81.10;;;;;;5074356;28;20201;-69
2023/03/23 06:05:26;;;;;;;11.27;7.20;;;8.90;80.90;;;;;;5074145;28;20239;-69
2023/03/23 06:07:56;;;;;;;9.00;6.50;;;8.90;81.00;;;;;;5073680;28;20317;-69
2023/03/23 06:10:25;;;;;;;6.75;5.40;;;9.00;80.90;;;;;;5073728;28;20185;-69
2023/03/23 06:12:52;;;;;;;8.07;5.82;;;9.10;80.50;;;;;;5073809;28;20190;-69
2023/03/23 06:15:19;;;;;;;12.18;5.95;;;9.10;80.40;;;;;;5073651;28;20606;-69
2023/03/23 06:17:47;;;;;;;9.20;5.93;;;9.10;80.20;;;;;;5073834;28;20186;-69
2023/03/23 06:20:14;;;;;;;6.13;4.35;;;9.20;80.00;;;;;;5073602;28;20375;-69
2023/03/23 06:22:41;;;;;;;6.50;3.75;;;9.30;81.00;;;;;;5073585;28;20247;-69
2023/03/23 06:25:12;;;;;;;3.20;2.33;;;9.30;79.50;;;;;;5073477;28;20196;-71
2023/03/23 06:27:41;;;;;;;5.88;2.70;;;9.30;79.60;;;;;;5073744;28;20189;-69
2023/03/23 06:30:10;;;;;;;3.38;2.47;;;9.40;79.40;;;;;;5066442;28;20213;-70
2023/03/23 06:32:38;;;;;;;5.00;2.70;;;9.50;80.20;;;;;;5071795;28;20186;-69
2023/03/23 06:35:11;;;;;;;7.03;3.90;;;9.60;79.60;;;;;;5071984;28;20193;-69
2023/03/23 06:37:38;;;;;;;4.75;3.35;;;9.60;79.40;;;;;;5071296;28;20189;-70
2023/03/23 06:40:08;;;;;;;4.68;3.00;;;9.70;79.20;;;;;;5071433;28;20527;-69
2023/03/23 06:42:35;;;;;;;6.22;2.92;;;9.70;78.80;;;;;;5070868;28;20205;-69
2023/03/23 06:45:10;;;;;;;5.28;3.08;;;9.70;79.00;;;;;;5071730;28;20194;-72
2023/03/23 06:47:43;;;;;;;10.48;3.70;;;9.80;78.90;;;;;;5071570;28;20193;-70
2023/03/23 06:50:10;;;;;;;4.60;3.30;;;9.90;78.80;;;;;;5071816;28;20229;-69
2023/03/23 06:52:39;;;;;;;4.63;3.42;;;10.00;77.40;;;;;;5071256;28;20643;-71
2023/03/23 06:55:07;;;;;;;6.00;3.65;;;10.10;77.80;;;;;;5069088;28;20247;-70
2023/03/23 06:57:35;;;;;;;10.02;3.78;;;10.20;77.80;;;;;;5071288;28;20190;-69
2023/03/23 07:00:13;;;;;;;6.03;4.13;;;10.40;77.90;;;;;;5070931;28;20185;-71
2023/03/23 07:02:44;;;;;;;9.80;4.22;;;10.60;77.60;;;;;;5069277;28;20190;-69
2023/03/23 07:05:12;;;;;;;7.82;4.82;;;10.80;76.60;;;;;;5070304;28;20181;-71
2023/03/23 07:07:41;;;;;;;5.70;4.18;;;11.00;76.30;;;;;;5066597;28;20696;-70
2023/03/23 07:10:11;;;;;;;8.02;4.53;;;11.20;76.80;;;;;;5070799;28;20228;-69
2023/03/23 07:12:39;;;;;;;5.53;2.60;;;11.40;77.00;;;;;;5067770;28;20628;-70
2023/03/23 07:15:10;;;;;;;6.35;2.72;;;11.70;76.90;;;;;;5069290;28;20526;-70
2023/03/23 07:17:37;;;;;;;6.50;3.83;;;11.90;75.90;;;;;;5070063;28;20226;-70
2023/03/23 07:20:07;;;;;;;6.93;6.22;;;12.00;73.90;;;;;;5070189;28;20225;-71
2023/03/23 07:22:35;;;;;;;5.30;3.97;;;12.10;74.10;;;;;;5068884;28;20637;-69
2023/03/23 07:25:02;;;;;;;6.03;3.20;;;12.20;73.10;;;;;;5070847;28;20292;-69
2023/03/23 07:27:29;;;;;;;5.40;2.92;;;12.40;72.60;;;;;;5067470;28;20196;-72
2023/03/23 07:30:01;;;;;;;9.30;3.47;;;12.60;71.50;;;;;;5067518;28;20296;-70
2023/03/23 07:32:28;;;;;;;5.38;3.05;;;12.90;70.70;;;;;;5068614;28;20240;-70
2023/03/23 07:34:55;;;;;;;21.60;13.00;;;13.40;69.50;;;;;;5070064;28;20729;-71
2023/03/23 07:37:26;;;;;;;48.55;28.15;;;14.10;66.20;;;;;;5070391;28;20193;-70
2023/03/23 07:39:53;;;;;;;22.27;12.07;;;14.70;61.00;;;;;;5065187;28;20530;-70
2023/03/23 07:42:20;;;;;;;6.80;4.50;;;14.90;58.40;;;;;;5068719;28;20189;-70
2023/03/23 07:44:48;;;;;;;5.88;3.90;;;14.90;57.50;;;;;;5071018;28;20193;-70
2023/03/23 07:47:15;;;;;;;4.03;3.00;;;15.40;56.60;;;;;;5069701;28;20209;-70
2023/03/23 07:49:42;;;;;;;6.37;3.33;;;15.90;55.10;;;;;;5072014;28;20483;-70
2023/03/23 07:52:10;;;;;;;5.20;3.47;;;16.10;53.60;;;;;;5072770;28;20467;-70
2023/03/23 07:54:39;;;;;;;4.90;3.70;;;16.30;53.60;;;;;;5071946;28;20451;-70
2023/03/23 07:57:06;;;;;;;7.30;3.63;;;16.20;51.90;;;;;;5071697;28;21025;-70
2023/03/23 07:59:33;;;;;;;6.27;4.60;;;16.10;52.70;;;;;;5072354;28;20474;-72
2023/03/23 08:02:00;;;;;;;7.33;3.93;;;16.00;52.90;;;;;;5072870;28;20464;-72
2023/03/23 08:04:27;;;;;;;5.47;3.23;;;15.90;52.20;;;;;;5072768;28;21044;-71
2023/03/23 08:06:56;;;;;;;4.77;3.13;;;15.80;51.50;;;;;;5072247;28;20463;-71
2023/03/23 08:09:22;;;;;;;4.47;2.90;;;15.80;50.70;;;;;;5072672;28;20491;-70
2023/03/23 08:11:51;;;;;;;5.63;3.77;;;16.20;50.90;;;;;;5072693;28;20444;-70
2023/03/23 08:14:18;;;;;;;7.30;4.10;;;16.70;48.50;;;;;;5072723;28;20439;-70
2023/03/23 08:16:45;;;;;;;4.17;3.40;;;16.80;47.80;;;;;;5072742;28;20436;-70
2023/03/23 08:19:13;;;;;;;4.77;3.30;;;16.70;48.60;;;;;;5072793;28;20857;-70
2023/03/23 08:21:40;;;;;;;4.20;3.50;;;16.80;50.90;;;;;;5072414;28;20863;-70
2023/03/23 08:24:08;;;;;;;15.80;4.40;;;16.80;48.30;;;;;;5072181;28;20435;-70
2023/03/23 08:26:34;;;;;;;4.83;3.60;;;16.60;48.90;;;;;;5072328;28;20783;-71
2023/03/23 08:29:03;;;;;;;4.30;3.37;;;16.70;49.50;;;;;;5072532;28;20514;-70
2023/03/23 08:31:30;;;;;;;5.10;4.10;;;16.70;50.20;;;;;;5072618;28;20439;-71
2023/03/23 08:33:57;;;;;;;5.47;3.70;;;16.70;50.40;;;;;;5072733;28;20848;-70
2023/03/23 08:36:24;;;;;;;8.00;3.90;;;16.70;50.50;;;;;;5072545;28;20527;-71
2023/03/23 08:38:52;;;;;;;7.53;4.20;;;16.70;49.90;;;;;;5072623;28;20502;-70
2023/03/23 08:41:20;;;;;;;7.10;4.17;;;16.60;49.20;;;;;;5072659;28;20435;-70
2023/03/23 08:43:47;;;;;;;5.23;3.93;;;16.50;49.50;;;;;;5072246;28;20470;-71
2023/03/23 08:46:15;;;;;;;5.57;4.17;;;16.50;50.30;;;;;;5075005;28;20476;-70
2023/03/23 08:48:43;;;;;;;7.33;4.40;;;16.50;50.50;;;;;;5076266;28;20462;-70
2023/03/23 08:51:10;;;;;;;8.27;5.67;;;16.50;50.70;;;;;;5076292;28;20431;-70
2023/03/23 08:53:42;;;;;;;5.87;4.70;;;16.40;49.90;;;;;;5076206;28;20443;-70
2023/03/23 08:56:11;;;;;;;5.93;4.27;;;16.40;49.20;;;;;;5075999;28;20589;-70
2023/03/23 08:58:39;;;;;;;10.60;5.83;;;16.20;49.40;;;;;;5075936;28;20440;-70
2023/03/23 09:01:10;;;;;;;6.07;5.47;;;16.20;50.20;;;;;;5075964;28;20432;-70
2023/03/23 09:03:40;;;;;;;9.37;5.37;;;16.30;49.90;;;;;;5075779;28;20481;-70
2023/03/23 09:06:09;;;;;;;8.40;5.30;;;16.30;49.60;;;;;;5075772;28;20436;-71
2023/03/23 09:08:37;;;;;;;8.63;6.00;;;16.40;49.30;;;;;;5075465;28;20443;-71
2023/03/23 09:11:06;;;;;;;8.60;5.87;;;16.40;48.20;;;;;;5075980;28;20525;-71
2023/03/23 09:13:34;;;;;;;11.53;5.30;;;16.40;48.10;;;;;;5075796;28;20432;-72
2023/03/23 09:16:01;;;;;;;7.27;5.20;;;16.40;47.70;;;;;;5075595;28;20945;-71
2023/03/23 09:18:28;;;;;;;7.13;4.70;;;16.30;48.20;;;;;;5075649;28;20444;-70
2023/03/23 09:20:57;;;;;;;5.40;4.77;;;16.30;48.60;;;;;;5075542;28;20553;-71
2023/03/23 09:23:24;;;;;;;8.07;4.90;;;16.30;48.90;;;;;;5075408;28;20458;-70
2023/03/23 09:25:52;;;;;;;7.30;4.57;;;16.30;49.10;;;;;;5075719;28;20444;-70
2023/03/23 09:28:19;;;;;;;5.03;4.23;;;16.30;48.80;;;;;;5075327;28;20444;-70
2023/03/23 09:30:47;;;;;;;7.30;4.70;;;16.40;48.90;;;;;;5075376;28;20484;-70
2023/03/23 09:33:15;;;;;;;5.77;4.50;;;16.50;49.40;;;;;;5075077;28;20428;-70
2023/03/23 09:35:42;;;;;;;5.90;4.30;;;16.50;50.00;;;;;;5075483;28;20443;-70
2023/03/23 09:38:12;;;;;;;6.80;4.73;;;16.70;49.50;;;;;;5074991;28;20428;-71
2023/03/23 09:40:48;;;;;;;7.53;5.30;;;16.80;48.30;;;;;;5075018;28;20432;-71
2023/03/23 09:43:34;;;;;;;5.40;4.57;;;17.00;48.50;;;;;;5075376;28;20432;-70
2023/03/23 09:46:12;;;;;;;6.97;5.20;;;17.40;49.40;;;;;;5074946;28;20531;-71
2023/03/23 09:48:47;;;;;;;4.90;4.20;;;17.80;49.80;;;;;;5075122;28;20440;-71
2023/03/23 09:51:29;;;;;;;6.10;4.33;;;18.30;47.80;;;;;;5074813;28;20439;-71
2023/03/23 09:54:04;;;;;;;4.57;3.73;;;19.90;47.30;;;;;;5074866;28;20527;-71
2023/03/23 09:56:33;;;;;;;5.80;4.17;;;22.00;43.20;;;;;;5074680;28;20436;-71
2023/03/23 09:59:15;;;;;;;5.47;4.30;;;22.80;38.80;;;;;;5074836;28;20440;-71
2023/03/23 10:01:53;;;;;;;4.57;3.70;;;22.80;37.20;;;;;;5074663;28;20443;-71
2023/03/23 10:04:33;;;;;;;5.67;3.47;;;22.80;37.30;;;;;;5074941;28;20879;-71
2023/03/23 10:07:07;;;;;;;6.40;4.00;;;22.90;36.10;;;;;;5074176;28;20502;-71
2023/03/23 10:09:37;;;;;;;5.03;3.70;;;22.80;36.00;;;;;;5074716;28;20482;-71
2023/03/23 10:12:16;;;;;;;5.97;4.30;;;22.60;36.10;;;;;;5074602;28;20471;-71
2023/03/23 10:14:53;;;;;;;4.20;3.63;;;22.50;36.40;;;;;;5074417;28;20443;-71
2023/03/23 10:17:24;;;;;;;4.43;4.00;;;22.40;36.80;;;;;;5074423;28;20479;-71
2023/03/23 10:19:58;;;;;;;7.63;5.50;;;22.20;36.90;;;;;;5074743;28;20468;-71
2023/03/23 10:22:46;;;;;;;4.93;4.33;;;22.10;37.60;;;;;;5074485;28;20554;-71
2023/03/23 10:25:20;;;;;;;4.40;3.60;;;21.90;38.60;;;;;;5074426;28;20440;-71
2023/03/23 10:27:59;;;;;;;8.00;4.80;;;21.70;38.80;;;;;;5074509;28;20851;-71
2023/03/23 10:30:30;;;;;;;5.87;4.30;;;21.50;38.80;;;;;;5074254;28;20479;-72
2023/03/23 10:33:02;;;;;;;4.37;3.40;;;21.40;38.10;;;;;;5074356;28;20432;-71
2023/03/23 10:35:34;;;;;;;4.93;4.10;;;21.40;38.10;;;;;;5073974;28;20440;-72
2023/03/23 10:38:04;;;;;;;4.77;4.03;;;21.30;38.10;;;;;;5074034;28;20434;-71
2023/03/23 10:40:45;;;;;;;7.03;4.33;;;21.20;38.40;;;;;;5073696;28;20523;-71
2023/03/23 10:43:12;;;;;;;9.07;3.87;;;21.00;39.40;;;;;;5073603;28;20527;-71
2023/03/23 10:45:40;;;;;;;6.00;3.80;;;20.90;39.60;;;;;;5073866;28;20439;-72
2023/03/23 10:48:11;;;;;;;5.20;3.87;;;20.80;39.40;;;;;;5073979;28;20450;-71
2023/03/23 10:50:40;;;;;;;5.70;4.20;;;20.70;40.00;;;;;;5073539;28;20570;-72
2023/03/23 10:53:17;;;;;;;5.13;4.30;;;20.50;39.50;;;;;;5069953;28;20443;-71
2023/03/23 10:55:47;;;;;;;7.10;4.70;;;20.30;40.10;;;;;;5069600;28;20452;-71
2023/03/23 10:58:24;;;;;;;6.80;4.77;;;20.20;41.10;;;;;;5072377;28;20527;-71
2023/03/23 11:00:52;;;;;;;6.47;4.63;;;20.10;41.00;;;;;;5072546;28;20502;-71
2023/03/23 11:03:39;;;;;;;5.07;4.30;;;20.10;40.90;;;;;;5070328;28;20444;-70
2023/03/23 11:06:09;;;;;;;6.13;4.00;;;20.00;41.00;;;;;;5069966;28;20915;-72
2023/03/23 11:08:50;;;;;;;6.50;4.40;;;20.10;41.00;;;;;;5051156;28;20455;-71
2023/03/23 11:11:28;;;;;;;6.10;4.17;;;20.20;39.90;;;;;;5047548;28;20599;-71
2023/03/23 11:13:59;;;;;;;7.20;4.40;;;20.20;39.50;;;;;;5048615;28;20506;-72
2023/03/23 11:16:28;;;;;;;5.50;3.70;;;20.20;39.70;;;;;;5051956;28;20479;-72
2023/03/23 11:19:01;;;;;;;5.90;3.70;;;20.30;39.20;;;;;;5052070;28;20536;-71
2023/03/23 11:21:36;;;;;;;5.30;3.70;;;20.30;38.90;;;;;;5051799;28;20440;-71
2023/03/23 11:24:08;;;;;;;5.60;3.70;;;20.40;39.10;;;;;;5052092;28;20464;-71
2023/03/23 11:26:39;;;;;;;5.33;4.40;;;20.60;39.60;;;;;;5051880;28;20935;-71
2023/03/23 11:29:11;;;;;;;6.00;3.97;;;20.90;39.60;;;;;;5052017;28;20440;-71
2023/03/23 11:31:42;;;;;;;8.90;4.50;;;21.20;39.00;;;;;;5048962;28;20484;-73
2023/03/23 11:34:15;;;;;;;6.30;4.83;;;21.60;38.30;;;;;;5051400;28;21016;-71
2023/03/23 11:36:49;;;;;;;5.00;3.93;;;21.90;37.60;;;;;;5051760;28;20884;-71
2023/03/23 11:39:30;;;;;;;6.60;3.60;;;22.10;37.40;;;;;;5049103;28;20803;-71
2023/03/23 11:42:01;;;;;;;7.57;4.77;;;22.20;36.80;;;;;;5052826;28;20573;-71
2023/03/23 11:44:34;;;;;;;7.03;3.83;;;22.50;35.70;;;;;;5052805;28;20507;-71
2023/03/23 11:47:05;;;;;;;4.80;3.67;;;22.90;35.70;;;;;;5052938;28;20544;-74
2023/03/23 11:49:44;;;;;;;4.93;3.07;;;23.70;35.20;;;;;;5052666;28;20527;-71
2023/03/23 11:52:17;;;;;;;5.93;4.10;;;24.40;33.80;;;;;;5053001;28;20464;-71
2023/03/23 11:54:51;;;;;;;9.53;5.33;;;24.70;31.10;;;;;;5052809;28;20436;-71
2023/03/23 11:57:20;;;;;;;7.07;4.10;;;24.70;30.90;;;;;;5052951;28;20505;-72
2023/03/23 11:59:47;;;;;;;7.23;3.80;;;24.60;32.30;;;;;;5052770;28;20464;-71
2023/03/23 12:02:36;;;;;;;5.33;3.43;;;24.50;30.20;;;;;;5052819;28;20923;-71
2023/03/23 12:05:33;;;;;;;4.90;3.03;;;24.40;28.20;;;;;;5052542;28;20916;-76
2023/03/23 12:08:12;;;;;;;6.13;3.73;;;24.10;27.90;;;;;;5063267;28;20475;-71
2023/03/23 12:10:47;;;;;;;5.47;3.47;;;23.90;27.10;;;;;;5071313;28;20503;-71
2023/03/23 12:13:27;;;;;;;7.87;3.37;;;23.70;27.80;;;;;;5071973;28;20489;-71
2023/03/23 12:16:01;;;;;;;4.70;2.90;;;23.60;27.50;;;;;;5071394;28;20439;-71
2023/03/23 12:18:33;;;;;;;4.33;3.13;;;23.50;28.20;;;;;;5072203;28;20436;-72
2023/03/23 12:21:11;;;;;;;4.80;2.97;;;23.50;27.90;;;;;;5075531;28;20471;-71
2023/03/23 12:23:46;;;;;;;4.90;2.60;;;23.30;27.40;;;;;;5076211;28;20438;-72
2023/03/23 12:26:23;;;;;;;5.50;3.57;;;22.90;27.30;;;;;;5075863;28;20432;-71
2023/03/23 12:29:19;;;;;;;4.30;3.30;;;22.60;28.20;;;;;;5075380;28;20443;-71
2023/03/23 12:31:55;;;;;;;5.83;2.67;;;22.40;28.40;;;;;;5056079;28;21072;-72
2023/03/23 12:34:34;;;;;;;5.30;2.77;;;22.20;29.40;;;;;;5069244;28;20435;-71
2023/03/23 12:37:17;;;;;;;3.43;2.60;;;22.10;29.10;;;;;;5075875;28;20527;-71
2023/03/23 12:39:58;;;;;;;6.23;3.60;;;22.00;28.90;;;;;;5075331;28;20432;-71
2023/03/23 12:42:35;;;;;;;5.00;3.53;;;22.00;29.50;;;;;;5071869;28;20448;-72
2023/03/23 12:45:22;;;;;;;4.23;2.97;;;22.20;29.70;;;;;;5073968;28;20443;-71
2023/03/23 12:47:58;;;;;;;4.40;3.00;;;22.40;29.40;;;;;;5074436;28;21003;-71
2023/03/23 12:50:32;;;;;;;9.57;4.10;;;22.80;28.80;;;;;;5074172;28;20475;-71
2023/03/23 12:53:05;;;;;;;6.20;3.37;;;23.00;28.40;;;;;;5074495;28;20442;-72
2023/03/23 12:55:41;;;;;;;6.40;3.30;;;22.90;27.70;;;;;;5074776;28;20924;-71
2023/03/23 12:58:10;;;;;;;5.73;3.33;;;22.60;27.20;;;;;;5055767;28;20951;-72
2023/03/23 13:00:54;;;;;;;5.37;3.30;;;22.40;28.10;;;;;;5055759;28;20444;-71
2023/03/23 13:03:29;;;;;;;3.80;2.50;;;22.20;28.70;;;;;;5056005;28;20498;-71
2023/03/23 13:06:04;;;;;;;3.80;2.70;;;22.00;28.80;;;;;;5055991;28;20523;-71
2023/03/23 13:08:37;;;;;;;4.80;2.60;;;21.80;28.90;;;;;;5055886;28;20551;-71
2023/03/23 13:11:09;;;;;;;4.17;2.77;;;21.60;29.00;;;;;;5055426;28;20520;-71